Station: Witchcliffe West  

  Atmospheric Gas Attenuation - ITU Rec 676-11   ----------------- dB/100km -----------------
Date Time Temp RH % AH g/m3 Dew Point Wind Direction Speed kph Gust kph Barometer mB Rainfall Since 9am 24GHz 47GHz 76GHz 122GHz 134GHz 241GHz
08/05 09:20 15.5 85 11.24 13 22 26 1030.9 0 25.1 30.5 50.7 133.4 133.8 462.3
08/05 09:10 15 86 11.03 12.7 19 22 1031 0 24.7 30.3 50.1 131.8 131.7 454.8
08/05 09:00 14.6 88 11.01 12.6 20 26 1031 0 24.7 30.4 50.3 132.2 132.1 456.2
08/05 08:50 13.9 88 10.55 11.9 20 26 1031 0 23.7 29.8 48.7 128.1 126.7 437.2
08/05 08:40 13.6 89 10.47 11.8 19 24 1031 0 23.6 29.8 48.6 127.6 126.0 434.9
08/05 08:30 13.2 90 10.33 11.6 19 26 1030.9 0 23.3 29.7 48.2 126.6 124.7 430.1
08/05 08:20 12.9 91 10.26 11.5 19 22 1030.9 0 23.2 29.7 48.1 126.3 124.2 428.3
08/05 08:10 12.3 94 10.21 11.4 20 24 1030.9 0 23.1 29.8 48.2 126.7 124.4 429.1
08/05 08:00 11.9 96 10.17 11.3 19 26 1030.9 0 23.0 29.8 48.3 126.9 124.5 429.3
08/05 07:50 11.5 98 10.12 11.2 17 22 1030.8 0 22.9 29.9 48.3 126.9 124.4 428.9
08/05 07:40 11 99 9.91 10.8 17 22 1030.7 0 22.5 29.7 47.7 125.3 122.2 421.0
08/05 07:30 10.4 99 9.54 10.2 17 24 1030.6 0 21.8 29.2 46.4 121.9 117.7 405.4
08/05 07:20 10 99 9.3 9.9 13 17 1030.6 0 21.3 28.9 45.6 119.7 114.8 395.3
08/05 07:10 9.6 99 9.07 9.5 15 19 1030.6 0 20.8 28.7 44.8 117.6 112.1 385.7
08/05 07:00 9.9 99 9.25 9.8 17 20 1030.5 0 21.2 28.9 45.4 119.2 114.3 393.3
08/05 06:50 10 99 9.3 9.9 15 19 1030.4 0 21.3 28.9 45.6 119.6 114.8 395.2
08/05 06:40 10 99 9.3 9.9 17 19 1030.3 0 21.3 28.9 45.6 119.6 114.8 395.2
08/05 06:30 10.1 99 9.36 10 17 24 1030.4 0 21.4 29.0 45.8 120.2 115.5 397.8
08/05 06:20 10 99 9.3 9.9 19 22 1030.3 0 21.3 28.9 45.6 119.6 114.8 395.2
08/05 06:10 9.8 99 9.19 9.7 15 20 1030.3 0 21.0 28.8 45.2 118.6 113.5 390.7
08/05 06:00 9.6 99 9.07 9.5 17 22 1030.4 0 20.8 28.7 44.8 117.6 112.1 385.7
08/05 05:50 9.7 99 9.13 9.6 17 19 1030.3 0 20.9 28.7 45.0 118.1 112.8 388.2
08/05 05:40 9.6 99 9.07 9.5 19 20 1030.4 0 20.8 28.7 44.8 117.6 112.1 385.7
08/05 05:30 9.7 98 9.04 9.4 19 24 1030.4 0 20.7 28.6 44.6 117.1 111.5 383.7
08/05 05:20 9.9 97 9.06 9.4 19 22 1030.4 0 20.8 28.5 44.6 117.0 111.5 383.7
08/05 05:10 10 97 9.12 9.5 19 20 1030.4 0 20.9 28.6 44.8 117.5 112.2 386.2
08/05 05:00 9.9 97 9.06 9.4 19 22 1030.4 0 20.8 28.5 44.6 117.0 111.5 383.7
08/05 04:50 10.1 97 9.17 9.6 20 22 1030.3 0 21.0 28.7 45.0 118.0 112.8 388.2
08/05 04:40 9.9 97 9.06 9.4 20 20 1030.3 0 20.8 28.5 44.6 117.0 111.5 383.6
08/05 04:30 9.8 98 9.09 9.5 17 20 1030.4 0 20.8 28.6 44.8 117.5 112.1 385.7
08/05 04:20 9.6 98 8.98 9.3 19 20 1030.4 0 20.6 28.5 44.4 116.5 110.8 381.1
08/05 04:10 9.2 97 8.66 8.7 15 17 1030.3 0 19.9 28.1 43.3 113.4 106.8 367.0
08/05 04:00 9.5 97 8.83 9 17 20 1030.3 0 20.3 28.3 43.8 114.9 108.8 374.1
08/05 03:50 9.5 96 8.74 8.9 15 17 1030.4 0 20.1 28.1 43.4 113.9 107.5 369.6
08/05 03:40 9.5 95 8.65 8.7 11 13 1030.4 0 19.9 27.9 43.1 112.8 106.2 365.1
08/05 03:30 9.6 94 8.61 8.7 11 15 1030.5 0 19.8 27.9 42.8 112.2 105.5 362.7
08/05 03:20 9.9 94 8.78 9 13 15 1030.5 0 20.1 28.1 43.4 113.8 107.5 369.7
08/05 03:10 10.2 94 8.95 9.3 15 17 1030.6 0 20.5 28.3 44.0 115.3 109.5 376.8
08/05 03:00 10.1 93 8.8 9 13 17 1030.6 0 20.2 28.0 43.4 113.7 107.5 369.8
08/05 02:50 10.3 93 8.91 9.2 13 17 1030.6 0 20.4 28.2 43.7 114.7 108.8 374.3
08/05 02:40 10.3 93 8.91 9.2 13 15 1030.5 0 20.4 28.1 43.7 114.7 108.8 374.3
08/05 02:30 10.4 94 9.06 9.5 13 17 1030.5 0 20.7 28.4 44.3 116.2 110.8 381.2
08/05 02:20 10.3 95 9.1 9.5 15 17 1030.3 0 20.8 28.5 44.6 116.8 111.5 383.7
08/05 02:10 10.3 94 9 9.4 11 13 1030.3 0 20.6 28.3 44.1 115.7 110.1 378.7
08/05 02:00 10.6 93 9.08 9.5 15 20 1030.3 0 20.8 28.3 44.3 116.2 110.8 381.2
08/05 01:50 10.8 93 9.19 9.7 17 19 1030.3 0 21.0 28.5 44.7 117.1 112.1 385.7
08/05 01:40 10.9 92 9.15 9.7 17 19 1030.2 0 20.9 28.4 44.4 116.5 111.3 383.1
08/05 01:30 11.1 91 9.17 9.7 15 22 1030.3 0 20.9 28.3 44.4 116.4 111.3 383.2
08/05 01:20 11 91 9.11 9.6 15 15 1030.4 0 20.8 28.3 44.2 115.9 110.6 380.7
08/05 01:10 10.8 91 9 9.4 15 17 1030.5 0 20.6 28.1 43.8 115.0 109.4 376.3
08/05 01:00 11.1 89 8.97 9.4 15 19 1030.5 0 20.5 28.0 43.6 114.2 108.5 373.4
08/05 00:50 11.9 87 9.22 9.8 17 19 1030.5 0 21.0 28.2 44.2 115.8 110.9 381.8
08/05 00:40 11.8 89 9.37 10 17 19 1030.5 0 21.3 28.5 44.9 117.7 113.2 389.6
08/05 00:30 11.7 88 9.21 9.8 17 20 1030.5 0 21.0 28.2 44.2 116.0 111.0 382.3
08/05 00:20 11.8 89 9.37 10 15 19 1030.5 0 21.3 28.5 44.9 117.7 113.2 389.6
08/05 00:10 11.8 89 9.37 10 17 17 1030.5 0 21.3 28.5 44.9 117.7 113.2 389.6
08/05 00:00 12.1 88 9.44 10.2 15 17 1030.6 0 21.5 28.5 45.0 118.1 113.7 391.6
07/05 23:50 12 93 9.91 10.9 13 15 1030.6 0 22.5 29.3 47.1 123.6 120.5 415.5
07/05 23:40 11.8 95 10 11 17 19 1030.6 0 22.7 29.6 47.6 125.0 122.2 421.1
07/05 23:30 11.6 95 9.88 10.8 13 17 1030.7 0 22.4 29.4 47.2 123.9 120.8 416.2
07/05 23:20 12 96 10.23 11.4 13 15 1030.6 0 23.2 29.9 48.5 127.4 125.2 431.7
07/05 23:10 11.8 96 10.11 11.2 13 17 1030.7 0 22.9 29.8 48.1 126.3 123.8 426.7
07/05 23:00 12 95 10.13 11.2 13 19 1030.8 0 22.9 29.7 48.1 126.2 123.7 426.7
07/05 22:50 12.2 95 10.25 11.4 17 19 1030.7 0 23.2 29.9 48.5 127.3 125.1 431.6
07/05 22:40 12.3 95 10.32 11.5 15 20 1030.7 0 23.3 30.0 48.7 128.0 126.0 434.6
07/05 22:30 12.2 95 10.25 11.4 15 19 1030.6 0 23.2 29.9 48.5 127.3 125.1 431.6
07/05 22:20 12.4 95 10.38 11.6 17 20 1030.5 0 23.5 30.0 48.9 128.5 126.7 437.0
07/05 22:10 12.3 94 10.21 11.4 13 15 1030.5 0 23.1 29.8 48.2 126.7 124.4 428.9
07/05 22:00 12.6 93 10.29 11.5 15 19 1030.5 0 23.2 29.8 48.4 127.1 125.0 431.3
07/05 21:50 12.9 93 10.48 11.8 15 17 1030.5 0 23.6 30.0 49.0 128.8 127.3 439.2
07/05 21:40 13 92 10.43 11.7 15 17 1030.5 0 23.5 29.9 48.8 128.1 126.4 436.1
07/05 21:30 13.3 91 10.51 11.9 17 20 1030.5 0 23.7 30.0 48.9 128.5 127.1 438.4
07/05 21:20 13.2 91 10.45 11.8 13 17 1030.4 0 23.6 29.9 48.7 128.0 126.3 436.0
07/05 21:10 13.5 90 10.53 11.9 15 17 1030.3 0 23.7 29.9 48.9 128.4 127.0 438.2
07/05 21:00 13.7 90 10.66 12.1 15 20 1030.3 0 24.0 30.1 49.3 129.6 128.5 443.6
07/05 20:50 13.9 89 10.67 12.1 13 17 1030.2 0 24.0 30.0 49.2 129.4 128.3 442.9
07/05 20:40 14 90 10.86 12.4 15 19 1030.2 0 24.4 30.3 50.0 131.4 130.9 451.9
07/05 20:30 14 91 10.98 12.6 13 19 1030.2 0 24.6 30.5 50.5 132.8 132.6 458.0
07/05 20:20 14.2 91 11.11 12.8 15 19 1030.1 0 24.9 30.7 51.0 134.0 134.1 463.3
07/05 20:10 14.2 91 11.11 12.8 13 15 1029.9 0 24.9 30.7 50.9 134.0 134.1 463.2
07/05 20:00 14.6 90 11.26 13 13 17 1030 0 25.2 30.8 51.4 135.0 135.6 468.4
07/05 19:50 14.5 91 11.32 13 13 17 1030.1 0 25.3 31.0 51.7 135.9 136.6 472.1
07/05 19:40 14.6 90 11.26 13 9 11 1030.1 0 25.2 30.8 51.4 135.1 135.6 468.5
07/05 19:30 14.7 90 11.33 13.1 13 19 1030 0 25.4 30.9 51.6 135.7 136.4 471.4
07/05 19:20 14.8 89 11.27 13 13 15 1030 0 25.2 30.8 51.3 134.8 135.4 467.7
07/05 19:10 14.9 88 11.22 12.9 13 13 1029.9 0 25.1 30.6 51.0 134.0 134.5 464.6
07/05 19:00 15.1 86 11.09 12.8 13 19 1029.8 0 24.8 30.3 50.3 132.2 132.2 456.8
07/05 18:50 15.3 85 11.1 12.8 13 13 1029.7 0 24.8 30.3 50.2 131.9 132.0 456.1
07/05 18:40 15.3 81 10.58 12.1 11 13 1029.8 0 23.7 29.4 47.9 126.0 124.7 430.5
07/05 18:30 15.4 79 10.38 11.8 9 13 1029.8 0 23.3 29.0 47.0 123.5 121.7 420.1
07/05 18:20 15.4 77 10.12 11.4 11 11 1029.7 0 22.7 28.5 45.9 120.6 118.1 407.5
07/05 18:10 16 74 10.08 11.4 13 15 1029.7 0 22.6 28.3 45.4 119.2 116.7 402.5
07/05 18:00 16 73 9.95 11.2 9 13 1029.6 0 22.3 28.1 44.9 117.8 114.9 396.3
07/05 17:50 16.2 71 9.79 10.9 9 11 1029.5 0 22.0 27.7 44.1 115.7 112.4 387.7
07/05 17:40 16.7 69 9.81 11 9 11 1029.5 0 22.0 27.6 43.9 115.2 112.0 386.2
07/05 17:30 17 67 9.69 10.8 9 13 1029.5 0 21.7 27.3 43.3 113.5 109.9 379.1
07/05 17:20 17.5 67 9.99 11.3 11 15 1029.4 0 22.3 27.7 44.2 116.0 113.2 390.6
07/05 17:10 17.8 66 10.02 11.4 11 13 1029.4 0 22.4 27.6 44.1 115.9 113.2 390.5
07/05 17:00 18.1 65 10.04 11.4 13 17 1029.5 0 22.4 27.6 44.1 115.7 113.0 390.0
07/05 16:50 18.4 64 10.07 11.5 13 15 1029.5 0 22.5 27.5 44.0 115.5 113.0 389.9

Last Refresh: 08-May-2026 11:04:10

Bureau of Meteorology